Volborg, Montana
Current Conditions -  °F | °C
As of 4:53 PM on Friday 19 Dec 2014 (Local Time) from KMLS Reporting Station
Clear Clear  
Wind Chill: 37°   Ceiling: Unl
Heat Index: 37°   Visibility: 10mi
Dew Point: 23°   Wind: 3mph
Humidity: 57%   Direction: 260°W
Pressure: 29.88"   Gusts: NA
Location:  45.84°N, 105.68°W
Report Text: KMLS 192353Z AUTO 26003KT 10SM CLR 03/M05 A2988 RMK AO2 SLP145 T00281050 10067 20006 53002
Loading
Personal Weather Stations






























Interactive Weather Map New forecast layout! Learn more

10-Day Weather Forecast

Advertisements
Track Severe Weather on mobile